Time;durP1;ratioP1;P1;durP2;ratioP2;P2;SDS_P1;SDS_P2;PMS_P1;PMS_P2;Temp;Humidity;BMP_temperature;BMP_pressure;BME280_temperature;BME280_humidity;BME280_pressure;Samples;Min_cycle;Max_cycle;Signal;HPM_P1;HPM_P2
2023/04/01 00:01:07;;;;;;;22.52;5.80;;;10.10;99.90;;;;;;4997143;28;20030;-76
2023/04/01 00:03:34;;;;;;;21.67;5.85;;;10.10;99.90;;;;;;4995233;28;20050;-76
2023/04/01 00:06:00;;;;;;;21.70;6.22;;;10.10;99.90;;;;;;4994297;28;20033;-74
2023/04/01 00:08:27;;;;;;;19.70;5.85;;;10.10;99.90;;;;;;5003166;28;20034;-75
2023/04/01 00:10:53;;;;;;;16.50;5.15;;;10.10;99.90;;;;;;5004185;28;20034;-76
2023/04/01 00:13:19;;;;;;;22.13;5.88;;;10.10;99.90;;;;;;5003487;28;20034;-76
2023/04/01 00:15:45;;;;;;;22.77;5.40;;;10.10;99.90;;;;;;5002382;28;20044;-73
2023/04/01 00:18:11;;;;;;;24.63;5.70;;;10.00;99.90;;;;;;5003595;28;20030;-75
2023/04/01 00:20:37;;;;;;;20.83;6.03;;;10.00;99.90;;;;;;4999168;28;20438;-75
2023/04/01 00:23:04;;;;;;;18.52;5.47;;;10.00;99.90;;;;;;5003966;28;20037;-75
2023/04/01 00:25:29;;;;;;;17.20;4.97;;;10.10;99.90;;;;;;5001801;28;20033;-71
2023/04/01 00:27:55;;;;;;;17.45;5.75;;;10.00;99.90;;;;;;4993338;28;20375;-75
2023/04/01 00:30:21;;;;;;;13.95;5.47;;;10.00;99.90;;;;;;5004556;28;20073;-72
2023/04/01 00:32:46;;;;;;;26.90;6.00;;;10.00;99.90;;;;;;5027325;28;20907;-75
2023/04/01 00:35:12;;;;;;;18.85;6.70;;;10.00;99.90;;;;;;5005577;28;20037;-76
2023/04/01 00:37:39;;;;;;;18.08;6.05;;;10.00;99.90;;;;;;4995735;28;20089;-74
2023/04/01 00:40:06;;;;;;;20.40;5.47;;;10.00;99.90;;;;;;4994041;28;20383;-75
2023/04/01 00:42:32;;;;;;;22.85;6.55;;;9.90;99.90;;;;;;4997052;28;20879;-73
2023/04/01 00:44:58;;;;;;;17.30;6.22;;;9.90;99.90;;;;;;4993432;28;20046;-75
2023/04/01 00:47:26;;;;;;;21.73;7.72;;;9.90;99.90;;;;;;4996761;28;20061;-74
2023/04/01 00:49:57;;;;;;;24.48;7.05;;;9.90;99.90;;;;;;5002666;28;20033;-76
2023/04/01 00:52:25;;;;;;;22.27;7.47;;;9.90;99.90;;;;;;5002353;28;20038;-75
2023/04/01 00:54:56;;;;;;;21.58;7.38;;;9.90;99.90;;;;;;5001724;28;20517;-76
2023/04/01 00:57:34;;;;;;;20.58;6.85;;;9.80;99.90;;;;;;4998344;28;20634;-77
2023/04/01 00:59:59;;;;;;;23.00;6.97;;;9.80;99.90;;;;;;5002548;28;20042;-72
2023/04/01 01:02:25;;;;;;;23.67;7.13;;;9.80;99.90;;;;;;4999493;28;20756;-76
2023/04/01 01:04:51;;;;;;;25.92;6.45;;;9.80;99.90;;;;;;5002669;28;20560;-75
2023/04/01 01:07:40;;;;;;;15.45;5.50;;;9.80;99.90;;;;;;5000618;28;20034;-75
2023/04/01 01:10:29;;;;;;;18.42;5.38;;;9.70;99.90;;;;;;5009501;28;20057;-73
2023/04/01 01:13:02;;;;;;;14.93;5.03;;;9.70;99.90;;;;;;5000688;28;20056;-75
2023/04/01 01:15:49;;;;;;;19.25;5.18;;;9.70;99.90;;;;;;5010170;28;20064;-76
2023/04/01 01:18:41;;;;;;;15.13;4.07;;;9.70;99.90;;;;;;5000854;28;20030;-75
2023/04/01 01:21:33;;;;;;;19.13;4.32;;;9.70;99.90;;;;;;5025894;28;20030;-76
2023/04/01 01:24:21;;;;;;;27.77;5.30;;;9.70;99.90;;;;;;5002406;28;20034;-75
2023/04/01 01:27:01;;;;;;;14.88;4.28;;;9.70;99.90;;;;;;5001572;28;20100;-73
2023/04/01 01:30:01;;;;;;;14.10;4.32;;;9.60;99.90;;;;;;5001725;28;20030;-75
2023/04/01 01:32:55;;;;;;;12.30;4.20;;;9.60;99.90;;;;;;5002562;28;20049;-74
2023/04/01 01:35:38;;;;;;;13.98;3.90;;;9.60;99.90;;;;;;5001949;28;20034;-76
2023/04/01 01:38:08;;;;;;;13.82;3.45;;;9.60;99.90;;;;;;5000570;28;20100;-75
2023/04/01 01:40:36;;;;;;;14.32;3.58;;;9.60;99.90;;;;;;4999706;28;20026;-75
2023/04/01 01:43:09;;;;;;;13.07;3.88;;;9.60;99.90;;;;;;5002108;28;20030;-75
2023/04/01 01:45:38;;;;;;;13.98;3.47;;;9.60;99.90;;;;;;4998694;28;20033;-75
2023/04/01 01:48:06;;;;;;;16.58;4.45;;;9.60;99.90;;;;;;5005326;28;20084;-77
2023/04/01 01:50:32;;;;;;;18.92;3.63;;;9.60;99.90;;;;;;5003299;28;20088;-75
2023/04/01 01:53:06;;;;;;;11.88;3.97;;;9.50;99.90;;;;;;5004169;28;20034;-76
2023/04/01 01:55:36;;;;;;;13.52;4.38;;;9.50;99.90;;;;;;5005574;28;20037;-76
2023/04/01 01:58:23;;;;;;;14.88;3.83;;;9.50;99.90;;;;;;5004396;28;20041;-75
2023/04/01 02:00:54;;;;;;;12.18;3.30;;;9.50;99.90;;;;;;5003144;28;20512;-75
2023/04/01 02:03:22;;;;;;;9.43;2.97;;;9.50;99.90;;;;;;5002361;28;20582;-76
2023/04/01 02:05:51;;;;;;;11.10;3.22;;;9.50;99.90;;;;;;5005372;28;20490;-76
2023/04/01 02:08:23;;;;;;;15.43;3.25;;;9.60;99.90;;;;;;5006060;28;20068;-74
2023/04/01 02:10:58;;;;;;;15.48;3.35;;;9.50;99.90;;;;;;5006513;28;20065;-76
2023/04/01 02:13:33;;;;;;;12.65;2.53;;;9.50;99.90;;;;;;5000891;28;20056;-72
2023/04/01 02:16:04;;;;;;;10.60;2.92;;;9.50;99.90;;;;;;5006431;28;20615;-76
2023/04/01 02:18:31;;;;;;;11.02;3.30;;;9.50;99.90;;;;;;5001495;28;20394;-74
2023/04/01 02:20:59;;;;;;;14.00;2.90;;;9.50;99.90;;;;;;5006551;28;20068;-75
2023/04/01 02:23:27;;;;;;;16.95;3.15;;;9.50;99.90;;;;;;5009129;28;20034;-76
2023/04/01 02:25:53;;;;;;;14.07;3.10;;;9.50;99.90;;;;;;5004683;28;20071;-75
2023/04/01 02:28:20;;;;;;;13.77;3.10;;;9.50;99.90;;;;;;5001700;28;20045;-76
2023/04/01 02:30:47;;;;;;;13.07;3.28;;;9.50;99.90;;;;;;5003766;28;20034;-76
2023/04/01 02:33:13;;;;;;;7.85;2.90;;;9.50;99.90;;;;;;5004585;28;20394;-76
2023/04/01 02:35:38;;;;;;;12.93;2.78;;;9.50;99.90;;;;;;5005534;28;20070;-73
2023/04/01 02:38:05;;;;;;;12.38;3.58;;;9.50;99.90;;;;;;5006604;28;20671;-75
2023/04/01 02:40:45;;;;;;;9.73;3.03;;;9.50;99.90;;;;;;5004895;28;20029;-75
2023/04/01 02:43:11;;;;;;;7.55;2.47;;;9.50;99.90;;;;;;5005796;28;20073;-75
2023/04/01 02:45:37;;;;;;;9.00;2.30;;;9.50;99.90;;;;;;5004947;28;20076;-76
2023/04/01 02:48:02;;;;;;;10.43;2.55;;;9.50;99.90;;;;;;5002786;28;20070;-74
2023/04/01 02:50:28;;;;;;;5.65;2.38;;;9.50;99.90;;;;;;5001868;28;20029;-77
2023/04/01 02:52:54;;;;;;;7.45;2.35;;;9.50;99.90;;;;;;5003573;28;20034;-76
2023/04/01 02:55:19;;;;;;;10.93;2.85;;;9.50;99.90;;;;;;5001486;28;20120;-77
2023/04/01 02:57:45;;;;;;;11.50;2.45;;;9.50;99.90;;;;;;5004051;28;20731;-76
2023/04/01 03:00:11;;;;;;;10.77;3.25;;;9.50;99.90;;;;;;5004886;28;20038;-75
2023/04/01 03:02:38;;;;;;;9.43;2.90;;;9.50;99.90;;;;;;5004332;28;20686;-75
2023/04/01 03:05:05;;;;;;;9.68;2.63;;;9.50;99.90;;;;;;4999867;28;20415;-76
2023/04/01 03:07:31;;;;;;;9.93;3.10;;;9.50;99.90;;;;;;5004837;28;20025;-75
2023/04/01 03:09:56;;;;;;;7.70;3.10;;;9.50;99.90;;;;;;5004278;28;20034;-74
2023/04/01 03:12:22;;;;;;;11.10;3.30;;;9.50;99.90;;;;;;5000396;28;20034;-75
2023/04/01 03:14:47;;;;;;;13.27;3.33;;;9.50;99.90;;;;;;5006199;28;20034;-76
2023/04/01 03:17:13;;;;;;;16.52;4.18;;;9.50;99.90;;;;;;5028518;28;20671;-74
2023/04/01 03:19:39;;;;;;;11.23;3.58;;;9.50;99.90;;;;;;5003935;28;20431;-75
2023/04/01 03:22:04;;;;;;;13.57;4.03;;;9.50;99.90;;;;;;5010073;28;20088;-74
2023/04/01 03:24:30;;;;;;;14.68;3.83;;;9.60;99.90;;;;;;5004528;28;20026;-73
2023/04/01 03:26:56;;;;;;;11.25;3.80;;;9.50;99.90;;;;;;5006507;28;20069;-73
2023/04/01 03:29:21;;;;;;;15.38;4.93;;;9.60;99.90;;;;;;5002080;28;20038;-75
2023/04/01 03:31:47;;;;;;;16.58;5.05;;;9.60;99.90;;;;;;5005716;28;20133;-75
2023/04/01 03:34:12;;;;;;;12.70;4.40;;;9.60;99.90;;;;;;5003809;28;20133;-75
2023/04/01 03:36:38;;;;;;;17.35;5.00;;;9.60;99.90;;;;;;5003664;28;20054;-75
2023/04/01 03:39:04;;;;;;;12.80;4.88;;;9.70;99.90;;;;;;5005274;28;20033;-75
2023/04/01 03:41:30;;;;;;;16.17;4.78;;;9.70;99.90;;;;;;5005277;28;20042;-72
2023/04/01 03:43:56;;;;;;;14.13;4.20;;;9.70;99.90;;;;;;5004838;28;20080;-76
2023/04/01 03:46:22;;;;;;;9.57;3.63;;;9.70;99.90;;;;;;5005939;28;20037;-75
2023/04/01 03:48:48;;;;;;;11.30;4.45;;;9.70;99.90;;;;;;5006988;28;20033;-74
2023/04/01 03:51:13;;;;;;;9.82;4.28;;;9.70;99.90;;;;;;5003824;28;20044;-75
2023/04/01 03:53:39;;;;;;;10.73;4.05;;;9.70;99.90;;;;;;4999991;28;20038;-76
2023/04/01 03:56:06;;;;;;;10.48;4.68;;;9.80;99.90;;;;;;5003820;28;20038;-75
2023/04/01 03:58:32;;;;;;;10.95;4.43;;;9.80;99.90;;;;;;5004893;28;20041;-76
2023/04/01 04:00:57;;;;;;;11.82;5.03;;;9.80;99.90;;;;;;5004103;28;20034;-76
2023/04/01 04:03:23;;;;;;;13.55;5.05;;;9.90;99.90;;;;;;5003107;28;20112;-76
2023/04/01 04:05:49;;;;;;;11.02;4.10;;;9.90;99.90;;;;;;5003679;28;20054;-73
2023/04/01 04:08:16;;;;;;;13.75;4.57;;;9.90;99.90;;;;;;5028948;28;20038;-77
2023/04/01 04:10:42;;;;;;;10.70;4.68;;;9.90;99.90;;;;;;5004838;28;20061;-74
2023/04/01 04:13:08;;;;;;;9.82;4.05;;;9.90;99.90;;;;;;5003751;28;20029;-72
2023/04/01 04:15:34;;;;;;;12.13;4.45;;;9.90;99.90;;;;;;5003153;28;20076;-75
2023/04/01 04:17:59;;;;;;;8.77;3.50;;;9.90;99.90;;;;;;5003449;28;20034;-75
2023/04/01 04:20:25;;;;;;;11.48;4.53;;;9.90;99.90;;;;;;5002711;28;20042;-75
2023/04/01 04:22:51;;;;;;;9.52;4.10;;;9.80;99.90;;;;;;5006830;28;20425;-77
2023/04/01 04:25:16;;;;;;;8.02;4.20;;;9.90;99.90;;;;;;5005176;28;20033;-75
2023/04/01 04:27:42;;;;;;;10.85;3.97;;;9.90;99.90;;;;;;5004565;28;20061;-75
2023/04/01 04:30:08;;;;;;;9.02;3.63;;;9.90;99.90;;;;;;5003550;28;20484;-74
2023/04/01 04:32:34;;;;;;;8.13;4.00;;;9.90;99.90;;;;;;5003760;28;20065;-76
2023/04/01 04:35:00;;;;;;;9.18;3.83;;;9.90;99.90;;;;;;5000257;28;20506;-74
2023/04/01 04:37:25;;;;;;;9.85;4.25;;;9.90;99.90;;;;;;5002943;28;20045;-74
2023/04/01 04:39:51;;;;;;;10.35;3.83;;;9.90;99.90;;;;;;5003490;28;20034;-75
2023/04/01 04:42:17;;;;;;;9.90;3.63;;;9.90;99.90;;;;;;5002862;28;20050;-75
2023/04/01 04:44:43;;;;;;;10.45;3.92;;;9.90;99.90;;;;;;4995962;28;20395;-76
2023/04/01 04:47:08;;;;;;;9.35;4.00;;;9.90;99.90;;;;;;4993878;28;20058;-76
2023/04/01 04:49:34;;;;;;;7.60;3.67;;;9.90;99.90;;;;;;5004106;28;20044;-74
2023/04/01 04:52:00;;;;;;;8.05;3.75;;;9.90;99.90;;;;;;4995858;28;20117;-75
2023/04/01 04:54:25;;;;;;;9.48;4.32;;;9.90;99.90;;;;;;4994170;28;20033;-75
2023/04/01 04:56:52;;;;;;;9.05;4.40;;;9.90;99.90;;;;;;4992397;28;20076;-75
2023/04/01 04:59:18;;;;;;;12.55;4.82;;;9.90;99.90;;;;;;4993926;28;20106;-75
2023/04/01 05:01:43;;;;;;;13.45;4.72;;;9.90;99.90;;;;;;5006770;28;20121;-75
2023/04/01 05:04:09;;;;;;;13.98;5.10;;;9.90;99.90;;;;;;5017697;28;20431;-74
2023/04/01 05:06:35;;;;;;;14.30;5.03;;;9.90;99.90;;;;;;4992750;28;20036;-74
2023/04/01 05:09:00;;;;;;;12.15;5.38;;;9.90;99.90;;;;;;4993079;28;20034;-74
2023/04/01 05:11:27;;;;;;;10.38;4.60;;;9.90;99.90;;;;;;5008145;28;20831;-75
2023/04/01 05:13:52;;;;;;;11.60;4.85;;;9.90;99.90;;;;;;5003083;28;20125;-74
2023/04/01 05:16:19;;;;;;;11.82;5.40;;;9.90;99.90;;;;;;4994632;28;20150;-75
2023/04/01 05:18:46;;;;;;;9.25;4.70;;;9.90;99.90;;;;;;4992520;28;20549;-73
2023/04/01 05:21:13;;;;;;;13.73;5.03;;;9.90;99.90;;;;;;4994044;28;20126;-73
2023/04/01 05:23:39;;;;;;;11.73;4.80;;;9.90;99.90;;;;;;5003197;28;20041;-75
2023/04/01 05:26:06;;;;;;;13.02;4.95;;;9.90;99.90;;;;;;5003646;28;21108;-75
2023/04/01 05:28:31;;;;;;;9.82;4.25;;;9.90;99.90;;;;;;5002387;28;20120;-73
2023/04/01 05:31:00;;;;;;;8.15;4.40;;;10.00;99.90;;;;;;5001363;28;20120;-74
2023/04/01 05:33:26;;;;;;;10.60;4.38;;;9.90;99.90;;;;;;5015072;28;20034;-77
2023/04/01 05:35:52;;;;;;;11.07;5.10;;;9.90;99.90;;;;;;5008844;28;20712;-76
2023/04/01 05:38:18;;;;;;;9.35;4.43;;;9.90;99.90;;;;;;5008773;28;20057;-75
2023/04/01 05:40:43;;;;;;;9.93;4.00;;;9.90;99.90;;;;;;5007743;28;20037;-76
2023/04/01 05:43:09;;;;;;;10.30;4.88;;;9.90;99.90;;;;;;5006909;28;20029;-74
2023/04/01 05:45:35;;;;;;;15.57;5.20;;;9.90;99.90;;;;;;5024541;28;20026;-76
2023/04/01 05:48:01;;;;;;;13.73;4.90;;;9.90;99.90;;;;;;5007187;28;20036;-72
2023/04/01 05:50:26;;;;;;;10.40;4.50;;;9.90;99.90;;;;;;5027519;28;20045;-76
2023/04/01 05:52:52;;;;;;;15.35;5.15;;;9.90;99.90;;;;;;5007210;28;20030;-75
2023/04/01 05:55:18;;;;;;;10.38;4.45;;;9.90;99.90;;;;;;5005564;28;20129;-75
2023/04/01 05:57:46;;;;;;;11.07;5.18;;;9.90;99.90;;;;;;5006348;28;20460;-74
2023/04/01 06:00:12;;;;;;;12.63;5.28;;;9.90;99.90;;;;;;5015442;28;20125;-74
2023/04/01 06:02:38;;;;;;;13.38;5.53;;;9.90;99.90;;;;;;5006173;28;20045;-74
2023/04/01 06:05:18;;;;;;;13.52;5.05;;;10.00;99.90;;;;;;5003277;28;20053;-74
2023/04/01 06:07:44;;;;;;;12.13;4.80;;;9.90;99.90;;;;;;5007116;28;20065;-74
2023/04/01 06:10:16;;;;;;;14.38;5.22;;;9.90;99.90;;;;;;5026970;28;20057;-76
2023/04/01 06:12:48;;;;;;;13.32;5.60;;;10.00;99.90;;;;;;5005146;28;20072;-74
2023/04/01 06:15:49;;;;;;;16.70;5.65;;;9.90;99.90;;;;;;5004752;28;20117;-74
2023/04/01 06:18:43;;;;;;;18.98;6.10;;;9.90;99.90;;;;;;5006773;28;20675;-73
2023/04/01 06:21:42;;;;;;;20.50;6.38;;;9.90;99.90;;;;;;5005036;28;20030;-74
2023/04/01 06:24:50;;;;;;;13.70;5.95;;;9.90;99.90;;;;;;5006372;28;20045;-76
2023/04/01 06:27:28;;;;;;;14.45;6.03;;;9.90;99.90;;;;;;5004776;28;20412;-76
2023/04/01 06:30:31;;;;;;;16.95;7.20;;;9.90;99.90;;;;;;5010900;28;20032;-76
2023/04/01 06:33:14;;;;;;;18.20;7.85;;;9.90;99.90;;;;;;5024755;28;20037;-75
2023/04/01 06:36:14;;;;;;;19.15;7.55;;;9.90;99.90;;;;;;5010902;28;20042;-72
2023/04/01 06:38:42;;;;;;;23.27;8.10;;;9.90;99.90;;;;;;5003629;28;20041;-74
2023/04/01 06:41:37;;;;;;;20.52;8.25;;;9.90;99.90;;;;;;5002204;28;20026;-75
2023/04/01 06:44:31;;;;;;;22.35;9.30;;;9.90;99.90;;;;;;5010616;28;20154;-75
2023/04/01 06:46:59;;;;;;;21.52;9.02;;;9.90;99.90;;;;;;4998984;28;20037;-74
2023/04/01 06:49:44;;;;;;;23.02;8.18;;;9.90;99.90;;;;;;5012803;28;20034;-74
2023/04/01 06:52:25;;;;;;;20.92;7.88;;;9.90;99.90;;;;;;5001777;28;20046;-75
2023/04/01 06:55:21;;;;;;;22.75;7.80;;;9.90;99.90;;;;;;5001472;28;20486;-72
2023/04/01 06:57:51;;;;;;;21.50;7.38;;;9.90;99.90;;;;;;4999995;28;20073;-75
2023/04/01 07:00:36;;;;;;;19.88;7.22;;;9.90;99.90;;;;;;4998744;28;20064;-76
2023/04/01 07:03:23;;;;;;;20.38;7.10;;;9.90;99.90;;;;;;4997011;28;20048;-74
2023/04/01 07:05:49;;;;;;;18.50;6.30;;;10.00;99.90;;;;;;4999985;28;20486;-74
2023/04/01 07:08:25;;;;;;;16.27;6.05;;;9.90;99.90;;;;;;5000764;28;20030;-75
2023/04/01 07:10:51;;;;;;;26.08;8.20;;;10.00;99.90;;;;;;4998645;28;20033;-75
2023/04/01 07:13:44;;;;;;;26.33;7.68;;;9.90;99.90;;;;;;5007026;28;20042;-75
2023/04/01 07:16:21;;;;;;;19.42;8.05;;;10.00;99.90;;;;;;5020328;28;20049;-74
2023/04/01 07:18:59;;;;;;;18.90;6.45;;;9.90;99.90;;;;;;5002844;28;20030;-75
2023/04/01 07:21:28;;;;;;;18.13;7.60;;;9.90;99.90;;;;;;4999689;28;20085;-76
2023/04/01 07:24:00;;;;;;;23.88;7.40;;;10.00;99.90;;;;;;5001049;28;20769;-73
2023/04/01 07:26:26;;;;;;;20.20;7.75;;;10.00;99.90;;;;;;4999522;28;20041;-76
2023/04/01 07:28:53;;;;;;;18.80;7.20;;;10.00;99.90;;;;;;5004113;28;20030;-76
2023/04/01 07:31:23;;;;;;;22.42;7.30;;;10.00;99.90;;;;;;5007617;28;20553;-73
2023/04/01 07:34:15;;;;;;;;;;;10.00;99.90;;;;;;4999144;28;20552;-75
2023/04/01 07:37:22;;;;;;;25.73;7.88;;;10.00;99.90;;;;;;4998873;28;19935;-74
2023/04/01 07:40:07;;;;;;;24.95;7.68;;;10.00;99.90;;;;;;5007834;28;20372;-75
2023/04/01 07:43:05;;;;;;;27.48;7.93;;;10.00;99.90;;;;;;4997640;28;20208;-76
2023/04/01 07:46:09;;;;;;;27.08;8.73;;;10.00;99.90;;;;;;4997855;28;20033;-75
2023/04/01 07:48:56;;;;;;;24.33;9.15;;;10.10;99.90;;;;;;5002734;28;20042;-75
2023/04/01 07:51:30;;;;;;;20.00;6.95;;;10.10;99.90;;;;;;5014353;28;20092;-75
2023/04/01 07:54:12;;;;;;;23.50;7.45;;;10.10;99.90;;;;;;5006643;28;20030;-73
2023/04/01 07:56:41;;;;;;;20.05;7.18;;;10.10;99.90;;;;;;4997734;28;20654;-74
2023/04/01 07:59:21;;;;;;;25.27;8.90;;;10.10;99.90;;;;;;5023156;28;20066;-74
2023/04/01 08:02:05;;;;;;;28.63;7.25;;;10.10;99.90;;;;;;5007199;28;20596;-74
2023/04/01 08:04:51;;;;;;;26.40;7.93;;;10.10;99.90;;;;;;4995640;28;20068;-75
2023/04/01 08:07:37;;;;;;;22.02;7.57;;;10.20;99.90;;;;;;4994522;28;20042;-73
2023/04/01 08:10:21;;;;;;;23.70;7.30;;;10.20;99.90;;;;;;5014493;28;20049;-76
2023/04/01 08:12:46;;;;;;;23.30;6.10;;;10.20;99.90;;;;;;4998988;28;20544;-74
2023/04/01 08:15:35;;;;;;;20.38;7.47;;;10.30;99.90;;;;;;5001544;28;20046;-75
2023/04/01 08:18:17;;;;;;;42.15;14.43;;;10.30;99.90;;;;;;4999888;28;20041;-75
2023/04/01 08:20:55;;;;;;;45.80;18.90;;;10.20;99.90;;;;;;4997352;28;20042;-77
2023/04/01 08:23:36;;;;;;;33.35;11.88;;;10.30;99.90;;;;;;4998875;28;20040;-74
2023/04/01 08:26:23;;;;;;;29.83;11.57;;;10.30;99.90;;;;;;5000520;28;20529;-74
2023/04/01 08:29:06;;;;;;;28.25;10.48;;;10.30;99.90;;;;;;5014624;28;20126;-75
2023/04/01 08:32:01;;;;;;;20.90;7.60;;;10.40;99.90;;;;;;4999069;28;20042;-75
2023/04/01 08:34:37;;;;;;;24.77;8.43;;;10.40;99.90;;;;;;4997985;28;20088;-75
2023/04/01 08:37:17;;;;;;;20.77;8.38;;;10.40;99.90;;;;;;4999567;28;20136;-75
2023/04/01 08:39:55;;;;;;;33.08;10.73;;;10.40;99.90;;;;;;4997999;28;20513;-75
2023/04/01 08:42:42;;;;;;;23.08;6.80;;;10.40;99.90;;;;;;5000025;28;20041;-75
2023/04/01 08:45:35;;;;;;;14.48;5.88;;;10.40;99.90;;;;;;5012589;28;20037;-75
2023/04/01 08:48:27;;;;;;;20.88;7.45;;;10.40;99.90;;;;;;4999602;28;20045;-75
2023/04/01 08:51:09;;;;;;;15.15;5.28;;;10.40;99.90;;;;;;5013523;28;20046;-75
2023/04/01 08:53:40;;;;;;;12.45;5.25;;;10.40;99.90;;;;;;4999914;28;20034;-74
2023/04/01 08:56:15;;;;;;;16.75;5.53;;;10.30;99.90;;;;;;4999441;28;20054;-76
2023/04/01 08:58:43;;;;;;;17.85;6.07;;;10.30;99.90;;;;;;4998912;28;20540;-76
2023/04/01 09:01:47;;;;;;;15.20;5.80;;;10.30;99.90;;;;;;5013345;28;20042;-77
2023/04/01 09:04:37;;;;;;;15.00;5.22;;;10.40;99.90;;;;;;4997673;28;20065;-76
2023/04/01 09:07:23;;;;;;;12.05;5.38;;;10.50;99.90;;;;;;5015057;28;20065;-75
2023/04/01 09:10:11;;;;;;;21.75;5.72;;;10.60;99.90;;;;;;5015530;28;20033;-75
2023/04/01 09:12:51;;;;;;;14.10;5.05;;;10.60;99.90;;;;;;4998601;28;20072;-76
2023/04/01 09:15:50;;;;;;;14.18;5.25;;;10.70;99.90;;;;;;5001216;28;20030;-76
2023/04/01 09:18:35;;;;;;;11.27;5.38;;;10.70;99.90;;;;;;5000046;28;20497;-75
2023/04/01 09:21:23;;;;;;;11.23;4.72;;;10.80;99.90;;;;;;5001139;28;20045;-76
2023/04/01 09:24:26;;;;;;;10.10;4.25;;;11.00;99.90;;;;;;5001228;28;20038;-74
2023/04/01 09:27:05;;;;;;;13.80;5.47;;;11.00;99.90;;;;;;5014027;28;20046;-76
2023/04/01 09:29:51;;;;;;;11.27;4.85;;;11.10;99.90;;;;;;4999306;28;20083;-76
2023/04/01 09:32:36;;;;;;;18.25;6.70;;;11.00;99.90;;;;;;5016471;28;20498;-73
2023/04/01 09:35:19;;;;;;;10.98;4.95;;;10.90;99.90;;;;;;5016058;28;20252;-75
2023/04/01 09:37:59;;;;;;;11.38;5.18;;;10.90;99.90;;;;;;4999813;28;20844;-75
2023/04/01 09:40:38;;;;;;;17.00;4.50;;;10.90;99.90;;;;;;5015966;28;20037;-75
2023/04/01 09:43:20;;;;;;;14.88;6.18;;;11.00;99.90;;;;;;5000491;28;20029;-75
2023/04/01 09:46:17;;;;;;;13.15;5.30;;;11.10;99.90;;;;;;5000235;28;20054;-76
2023/04/01 09:49:04;;;;;;;13.10;4.63;;;11.20;99.90;;;;;;5015624;28;20045;-77
2023/04/01 09:51:51;;;;;;;11.80;4.30;;;11.30;99.90;;;;;;4998392;28;20043;-75
2023/04/01 09:54:44;;;;;;;12.38;5.07;;;11.40;99.90;;;;;;5001321;28;20464;-72
2023/04/01 09:57:39;;;;;;;9.73;4.47;;;11.50;99.90;;;;;;5012882;28;20125;-73
2023/04/01 10:00:29;;;;;;;12.13;4.10;;;11.60;99.90;;;;;;4994955;28;20026;-75
2023/04/01 10:03:51;;;;;;;9.65;3.42;;;11.40;99.90;;;;;;4997517;28;20131;-76
2023/04/01 10:06:23;;;;;;;6.93;3.00;;;11.40;99.90;;;;;;5004750;28;20072;-76
2023/04/01 10:09:15;;;;;;;6.63;2.67;;;11.30;99.90;;;;;;5001931;28;20045;-75
2023/04/01 10:12:14;;;;;;;5.65;2.22;;;11.30;99.90;;;;;;5007993;28;20384;-75
2023/04/01 10:15:17;;;;;;;5.57;2.67;;;11.30;99.90;;;;;;5002805;28;20503;-73
2023/04/01 10:18:10;;;;;;;7.82;2.47;;;11.30;99.90;;;;;;5002527;28;20546;-75
2023/04/01 10:21:14;;;;;;;4.13;2.15;;;11.40;99.90;;;;;;5012395;28;20696;-74
2023/04/01 10:23:58;;;;;;;15.40;3.45;;;11.40;99.90;;;;;;5007811;28;20145;-76
2023/04/01 10:26:29;;;;;;;5.22;2.30;;;11.50;99.90;;;;;;5003239;28;20498;-74
2023/04/01 10:29:35;;;;;;;6.15;2.70;;;11.60;99.90;;;;;;5004157;28;20038;-73
2023/04/01 10:32:10;;;;;;;5.72;2.75;;;11.60;99.90;;;;;;5005885;28;20053;-75
2023/04/01 10:35:06;;;;;;;6.35;2.92;;;11.60;99.90;;;;;;5001769;28;20076;-75
2023/04/01 10:38:06;;;;;;;5.35;2.92;;;11.80;99.90;;;;;;5001031;28;20038;-73
2023/04/01 10:40:31;;;;;;;4.60;2.60;;;11.80;99.90;;;;;;4998267;28;20057;-76
2023/04/01 10:43:05;;;;;;;5.03;2.60;;;12.00;99.90;;;;;;5002651;28;20490;-76
2023/04/01 10:45:50;;;;;;;6.07;2.70;;;12.00;99.90;;;;;;5011598;28;20046;-76
2023/04/01 10:48:50;;;;;;;4.35;2.30;;;11.90;99.90;;;;;;4999698;28;20095;-75
2023/04/01 10:51:16;;;;;;;;;;;11.90;99.90;;;;;;5002044;28;20037;-75
2023/04/01 10:54:15;;;;;;;5.28;2.53;;;11.80;99.90;;;;;;5006008;28;19917;-75
2023/04/01 10:56:56;;;;;;;4.50;2.20;;;11.70;99.90;;;;;;5003823;28;20034;-75
2023/04/01 10:59:43;;;;;;;3.40;2.20;;;11.60;99.90;;;;;;5008458;28;20038;-75
2023/04/01 11:02:36;;;;;;;5.45;2.25;;;11.50;99.90;;;;;;5017729;28;20419;-76
2023/04/01 11:05:19;;;;;;;3.42;1.52;;;11.40;99.90;;;;;;4999860;28;20104;-75
2023/04/01 11:08:30;;;;;;;5.18;2.10;;;11.30;99.90;;;;;;5011140;28;20030;-75
2023/04/01 11:11:01;;;;;;;4.07;1.90;;;11.40;99.90;;;;;;5001949;28;20636;-75
2023/04/01 11:13:51;;;;;;;2.78;1.30;;;11.40;99.90;;;;;;5022475;28;20041;-75
2023/04/01 11:16:54;;;;;;;2.92;1.20;;;11.50;99.90;;;;;;4998751;28;20504;-77
2023/04/01 11:19:28;;;;;;;3.95;1.67;;;11.50;99.90;;;;;;4996895;28;20041;-75
2023/04/01 11:22:09;;;;;;;8.15;2.38;;;11.60;99.90;;;;;;5003757;28;20502;-74
2023/04/01 11:24:58;;;;;;;3.78;1.73;;;11.70;99.90;;;;;;4998440;28;20038;-75
2023/04/01 11:27:37;;;;;;;4.22;1.73;;;11.80;99.90;;;;;;4998087;28;20133;-73
2023/04/01 11:30:28;;;;;;;2.80;1.75;;;12.10;99.90;;;;;;4998354;28;20037;-75
2023/04/01 11:33:28;;;;;;;4.70;1.70;;;12.20;99.90;;;;;;5012176;28;20541;-76
2023/04/01 11:36:19;;;;;;;3.92;1.63;;;12.50;99.90;;;;;;5001228;28;20062;-75
2023/04/01 11:39:23;;;;;;;4.57;1.40;;;12.50;99.90;;;;;;4999458;28;20041;-76
2023/04/01 11:42:26;;;;;;;3.90;1.60;;;12.70;99.90;;;;;;4997412;28;20558;-73
2023/04/01 11:44:56;;;;;;;2.08;1.23;;;12.60;99.90;;;;;;5011708;28;20029;-74
2023/04/01 11:47:42;;;;;;;2.10;1.30;;;12.50;99.90;;;;;;4996627;28;20057;-72
2023/04/01 11:50:24;;;;;;;2.28;1.30;;;12.30;99.90;;;;;;4995059;28;20034;-75
2023/04/01 11:53:20;;;;;;;4.10;1.90;;;12.00;99.90;;;;;;4999632;28;20140;-72
2023/04/01 11:56:23;;;;;;;2.83;1.35;;;11.80;99.90;;;;;;5000510;28;20081;-73
2023/04/01 11:59:27;;;;;;;3.75;2.25;;;11.80;99.90;;;;;;5000637;28;20062;-74
2023/04/01 12:02:25;;;;;;;7.53;2.95;;;11.80;99.90;;;;;;5001162;28;20046;-75
2023/04/01 12:05:20;;;;;;;4.97;1.67;;;11.70;99.90;;;;;;4999647;28;20042;-75
2023/04/01 12:07:59;;;;;;;3.38;1.88;;;11.60;99.90;;;;;;4980853;28;20073;-75
2023/04/01 12:10:48;;;;;;;4.83;2.37;;;11.50;99.90;;;;;;5001394;28;20062;-74
2023/04/01 12:13:23;;;;;;;4.32;2.42;;;11.40;99.90;;;;;;5001480;28;20273;-76
2023/04/01 12:16:06;;;;;;;4.38;2.10;;;11.40;99.90;;;;;;5016033;28;20576;-75
2023/04/01 12:18:43;;;;;;;5.30;2.72;;;11.40;99.90;;;;;;5000323;28;20080;-72
2023/04/01 12:21:35;;;;;;;5.90;2.85;;;11.40;99.90;;;;;;5002138;28;20048;-74
2023/04/01 12:24:28;;;;;;;4.45;2.53;;;11.30;99.90;;;;;;5000507;28;20729;-74
2023/04/01 12:27:19;;;;;;;6.55;3.53;;;11.40;99.90;;;;;;4997132;28;20034;-74
2023/04/01 12:30:01;;;;;;;6.32;2.42;;;11.50;99.90;;;;;;4996099;28;20065;-75
2023/04/01 12:32:51;;;;;;;4.95;2.50;;;11.50;99.90;;;;;;4995664;28;20845;-75
2023/04/01 12:35:30;;;;;;;7.13;3.58;;;11.60;99.90;;;;;;4996098;28;20034;-76
2023/04/01 12:38:04;;;;;;;8.07;3.63;;;11.60;99.90;;;;;;4996353;28;20053;-75
2023/04/01 12:40:47;;;;;;;8.30;3.55;;;11.70;99.90;;;;;;4993803;28;20076;-75
2023/04/01 12:43:18;;;;;;;5.97;2.80;;;11.70;99.90;;;;;;4995300;28;20053;-76
2023/04/01 12:46:02;;;;;;;3.88;2.13;;;11.80;99.90;;;;;;4996782;28;20104;-74
2023/04/01 12:48:45;;;;;;;4.57;2.47;;;11.90;99.90;;;;;;4999766;28;20041;-77
2023/04/01 12:51:29;;;;;;;5.93;2.63;;;12.00;99.90;;;;;;4996414;28;20534;-74
2023/04/01 12:54:32;;;;;;;4.25;2.25;;;12.00;99.90;;;;;;4995984;28;20070;-74
2023/04/01 12:57:06;;;;;;;4.00;1.92;;;12.00;99.90;;;;;;5007313;28;20038;-75
2023/04/01 12:59:52;;;;;;;5.22;2.50;;;12.00;99.90;;;;;;4993392;28;20073;-76
2023/04/01 13:02:53;;;;;;;6.25;2.45;;;12.10;99.90;;;;;;4993472;28;20976;-71
2023/04/01 13:05:35;;;;;;;16.88;5.80;;;12.10;99.90;;;;;;4996143;28;20042;-75
2023/04/01 13:08:20;;;;;;;4.90;2.20;;;12.10;99.90;;;;;;4996835;28;20041;-75
2023/04/01 13:10:45;;;;;;;3.63;1.67;;;12.00;99.90;;;;;;4999491;28;20674;-74
2023/04/01 13:13:25;;;;;;;4.13;1.60;;;12.00;99.90;;;;;;5024127;28;20063;-75
2023/04/01 13:16:16;;;;;;;6.20;2.03;;;12.00;99.90;;;;;;5004063;28;20034;-76
2023/04/01 13:18:59;;;;;;;4.53;2.17;;;12.00;99.90;;;;;;5001609;28;20042;-75
2023/04/01 13:21:37;;;;;;;3.42;2.03;;;12.00;99.90;;;;;;5006527;28;20100;-74
2023/04/01 13:24:29;;;;;;;3.80;2.00;;;12.00;99.90;;;;;;4999632;28;20037;-75
2023/04/01 13:27:21;;;;;;;10.38;1.80;;;12.20;99.90;;;;;;4994796;28;20065;-74
2023/04/01 13:30:17;;;;;;;4.03;2.00;;;12.40;99.90;;;;;;5001669;28;20034;-76
2023/04/01 13:32:58;;;;;;;4.65;2.20;;;12.70;99.90;;;;;;5002033;28;20037;-74
2023/04/01 13:35:33;;;;;;;;;;;12.80;99.90;;;;;;5000469;28;20095;-76
2023/04/01 13:38:19;;;;;;;7.20;2.47;;;12.80;99.90;;;;;;4999815;28;20007;-74